createdAt,value
2023-03-24T00:02:29.239Z,5.69
2023-03-24T00:05:03.943Z,5.66
2023-03-24T00:07:38.504Z,5.71
2023-03-24T00:10:15.063Z,5.62
2023-03-24T00:12:50.515Z,5.58
2023-03-24T00:15:24.131Z,5.45
2023-03-24T00:17:58.441Z,5.44
2023-03-24T00:20:33.059Z,5.29
2023-03-24T00:23:06.552Z,5.38
2023-03-24T00:25:40.147Z,5.44
2023-03-24T00:28:14.604Z,5.34
2023-03-24T00:30:53.175Z,5.24
2023-03-24T00:33:26.476Z,5.23
2023-03-24T00:35:59.987Z,5.07
2023-03-24T00:38:34.393Z,5.15
2023-03-24T00:41:08.795Z,5.14
2023-03-24T00:43:43.077Z,5.12
2023-03-24T00:46:27.563Z,5.08
2023-03-24T00:49:05.817Z,4.97
2023-03-24T00:51:40.970Z,5.06
2023-03-24T00:54:14.148Z,4.93
2023-03-24T00:56:49.756Z,4.90
2023-03-24T00:59:24.512Z,4.91
2023-03-24T01:01:58.034Z,4.81
2023-03-24T01:04:31.746Z,4.88
2023-03-24T01:07:05.686Z,4.95
2023-03-24T01:09:38.879Z,4.82
2023-03-24T01:12:13.575Z,4.73
2023-03-24T01:14:48.777Z,4.66
2023-03-24T01:17:25.561Z,4.75
2023-03-24T01:19:58.816Z,4.64
2023-03-24T01:22:32.116Z,4.47
2023-03-24T01:25:06.005Z,4.56
2023-03-24T01:27:39.869Z,4.74
2023-03-24T01:30:15.360Z,4.61
2023-03-24T01:32:48.597Z,4.66
2023-03-24T01:35:22.362Z,4.71
2023-03-24T01:37:55.480Z,4.51
2023-03-24T01:40:30.048Z,4.70
2023-03-24T01:43:03.292Z,4.40
2023-03-24T01:45:55.987Z,4.42
2023-03-24T01:48:31.870Z,4.59
2023-03-24T01:51:07.254Z,4.58
2023-03-24T01:53:43.554Z,4.66
2023-03-24T01:56:16.721Z,4.82
2023-03-24T01:58:52.924Z,4.60
2023-03-24T02:01:30.258Z,4.55
2023-03-24T02:04:04.924Z,4.78
2023-03-24T02:06:41.236Z,4.57
2023-03-24T02:09:15.544Z,4.60
2023-03-24T02:11:55.021Z,4.97
2023-03-24T02:14:28.528Z,5.04
2023-03-24T02:17:19.603Z,5.04
2023-03-24T02:20:11.314Z,5.01
2023-03-24T02:23:02.631Z,4.90
2023-03-24T02:25:52.576Z,4.54
2023-03-24T02:28:33.264Z,4.34
2023-03-24T02:31:21.798Z,4.57
2023-03-24T02:34:13.533Z,4.68
2023-03-24T02:36:59.538Z,4.28
2023-03-24T02:39:44.238Z,4.41
2023-03-24T02:42:24.569Z,4.59
2023-03-24T02:45:03.519Z,4.73
2023-03-24T02:47:40.094Z,4.71
2023-03-24T02:50:18.453Z,4.50
2023-03-24T02:52:54.192Z,4.20
2023-03-24T02:55:30.456Z,4.15
2023-03-24T02:58:05.261Z,3.96
2023-03-24T03:00:42.006Z,4.36
2023-03-24T03:03:18.636Z,4.28
2023-03-24T03:05:54.417Z,4.27
2023-03-24T03:08:29.932Z,4.39
2023-03-24T03:11:06.646Z,4.37
2023-03-24T03:13:41.763Z,4.38
2023-03-24T03:16:17.561Z,4.22
2023-03-24T03:18:52.634Z,4.15
2023-03-24T03:21:26.885Z,4.31
2023-03-24T03:24:03.281Z,4.21
2023-03-24T03:26:37.923Z,4.22
2023-03-24T03:29:13.359Z,4.28
2023-03-24T03:31:51.758Z,4.19
2023-03-24T03:34:29.420Z,4.20
2023-03-24T03:37:06.150Z,4.17
2023-03-24T03:39:42.263Z,3.62
2023-03-24T03:42:16.833Z,4.09
2023-03-24T03:44:49.769Z,3.95
2023-03-24T03:47:23.806Z,4.00
2023-03-24T03:49:57.282Z,4.03
2023-03-24T03:52:30.669Z,3.86
2023-03-24T03:55:03.977Z,3.79
2023-03-24T03:57:38.558Z,3.82
2023-03-24T04:00:15.825Z,4.23
2023-03-24T04:02:57.228Z,3.89
2023-03-24T04:05:31.555Z,3.86
2023-03-24T04:08:26.346Z,3.73
2023-03-24T04:11:20.114Z,3.83
2023-03-24T04:14:01.500Z,3.74
2023-03-24T04:16:40.089Z,3.73
2023-03-24T04:19:16.888Z,3.68
2023-03-24T04:21:58.781Z,3.73
2023-03-24T04:24:41.028Z,3.73
2023-03-24T04:27:22.066Z,3.68
2023-03-24T04:30:01.147Z,3.63
2023-03-24T04:32:41.458Z,3.56
2023-03-24T04:35:26.435Z,3.35
2023-03-24T04:38:03.534Z,3.50
2023-03-24T04:40:41.991Z,3.59
2023-03-24T04:43:17.849Z,3.50
2023-03-24T04:45:52.955Z,3.52
2023-03-24T04:48:26.655Z,3.66
2023-03-24T04:51:00.759Z,3.62
2023-03-24T04:53:33.648Z,3.73
2023-03-24T04:56:15.118Z,3.83
2023-03-24T04:58:48.522Z,3.71
2023-03-24T05:01:23.093Z,3.76
2023-03-24T05:03:56.326Z,3.89
2023-03-24T05:06:29.465Z,4.15
2023-03-24T05:09:02.483Z,4.15
2023-03-24T05:11:35.448Z,4.21
2023-03-24T05:14:09.084Z,4.70
2023-03-24T05:16:43.871Z,4.36
2023-03-24T05:19:17.397Z,4.59
2023-03-24T05:21:50.343Z,4.70
2023-03-24T05:24:23.470Z,4.79
2023-03-24T05:26:56.450Z,4.75
2023-03-24T05:29:29.755Z,5.06
2023-03-24T05:32:04.354Z,5.33
2023-03-24T05:34:37.295Z,5.27
2023-03-24T05:37:13.007Z,5.48
2023-03-24T05:39:46.038Z,5.57
2023-03-24T05:42:19.120Z,5.80
2023-03-24T05:44:52.328Z,5.82
2023-03-24T05:47:27.344Z,5.95
2023-03-24T05:50:00.571Z,6.05
2023-03-24T05:52:33.437Z,6.02
2023-03-24T05:55:07.613Z,6.04
2023-03-24T05:57:41.197Z,6.24
2023-03-24T06:00:17.286Z,6.31
2023-03-24T06:02:52.201Z,6.45
2023-03-24T06:05:25.267Z,6.56
2023-03-24T06:08:01.413Z,6.72
2023-03-24T06:10:36.948Z,6.90
2023-03-24T06:13:10.047Z,7.03
2023-03-24T06:15:43.261Z,7.00
2023-03-24T06:18:17.866Z,7.04
2023-03-24T06:20:51.180Z,7.23
2023-03-24T06:23:25.973Z,7.29
2023-03-24T06:26:01.692Z,7.41
2023-03-24T06:28:34.818Z,7.44
2023-03-24T06:31:14.743Z,7.53
2023-03-24T06:33:49.312Z,7.64
2023-03-24T06:36:23.628Z,7.73
2023-03-24T06:38:57.020Z,7.82
2023-03-24T06:41:30.019Z,7.94
2023-03-24T06:44:03.060Z,8.00
2023-03-24T06:46:36.380Z,8.06
2023-03-24T06:49:11.074Z,8.18
2023-03-24T06:51:44.194Z,8.28
2023-03-24T06:54:17.652Z,8.34
2023-03-24T06:56:50.936Z,8.48
2023-03-24T06:59:24.864Z,8.61
2023-03-24T07:01:57.818Z,8.66
2023-03-24T07:04:36.582Z,8.80
2023-03-24T07:07:35.804Z,8.89
2023-03-24T07:10:03.808Z,9.03
2023-03-24T07:12:40.105Z,9.10
2023-03-24T07:15:13.516Z,9.17
2023-03-24T07:17:47.102Z,9.23
2023-03-24T07:20:22.078Z,9.36
2023-03-24T07:22:56.695Z,9.47
2023-03-24T07:25:29.776Z,9.47
2023-03-24T07:28:03.048Z,9.55
2023-03-24T07:30:40.427Z,9.67
2023-03-24T07:33:14.142Z,9.75
2023-03-24T07:35:49.093Z,9.89
2023-03-24T07:38:22.476Z,9.96
2023-03-24T07:40:55.846Z,10.07
2023-03-24T07:43:28.854Z,10.03
2023-03-24T07:46:02.246Z,10.11
2023-03-24T07:48:35.538Z,10.22
2023-03-24T07:51:09.855Z,10.29
2023-03-24T07:53:45.777Z,10.36
2023-03-24T07:56:18.985Z,10.48
2023-03-24T07:58:52.022Z,10.55
2023-03-24T08:01:24.870Z,10.54
2023-03-24T08:03:58.504Z,10.57
2023-03-24T08:06:33.100Z,10.66
2023-03-24T08:09:06.859Z,10.79
2023-03-24T08:11:40.520Z,10.87
2023-03-24T08:14:13.897Z,10.90
2023-03-24T08:16:47.547Z,10.88
2023-03-24T08:19:20.673Z,11.03
2023-03-24T08:21:55.128Z,11.14
2023-03-24T08:24:28.739Z,11.23
2023-03-24T08:27:06.140Z,11.23
2023-03-24T08:29:39.265Z,11.28
2023-03-24T08:32:12.200Z,11.48
2023-03-24T08:34:45.196Z,11.56
2023-03-24T08:37:19.896Z,11.67
2023-03-24T08:39:53.052Z,11.74
2023-03-24T08:42:26.352Z,11.75
2023-03-24T08:44:59.533Z,11.73
2023-03-24T08:47:32.520Z,11.82
2023-03-24T08:50:06.956Z,11.85
2023-03-24T08:52:42.072Z,11.85
2023-03-24T08:55:15.202Z,11.99
2023-03-24T08:57:48.924Z,11.97
2023-03-24T09:00:22.850Z,11.96
2023-03-24T09:02:56.659Z,11.91
2023-03-24T09:05:43.288Z,12.14
2023-03-24T09:08:19.936Z,12.24
2023-03-24T09:10:53.103Z,12.16
2023-03-24T09:13:26.577Z,12.11
2023-03-24T09:16:02.166Z,12.25
2023-03-24T09:18:35.681Z,12.36
2023-03-24T09:21:09.339Z,12.28
2023-03-24T09:23:44.356Z,12.49
2023-03-24T09:26:17.821Z,12.36
2023-03-24T09:28:51.099Z,12.40
2023-03-24T09:31:24.483Z,12.40
2023-03-24T09:33:58.039Z,12.61
2023-03-24T09:36:31.290Z,12.48
2023-03-24T09:39:06.254Z,12.40
2023-03-24T09:41:39.229Z,12.33
2023-03-24T09:44:17.113Z,12.44
2023-03-24T09:46:52.044Z,12.39
2023-03-24T09:49:26.043Z,12.53
2023-03-24T09:52:04.572Z,12.60
2023-03-24T09:54:42.446Z,12.62
2023-03-24T09:57:18.037Z,12.66
2023-03-24T09:59:51.126Z,12.65
2023-03-24T10:02:24.497Z,12.88
2023-03-24T10:04:57.639Z,12.96
2023-03-24T10:07:34.632Z,13.01
2023-03-24T10:10:19.292Z,13.05
2023-03-24T10:12:54.219Z,12.98
2023-03-24T10:15:37.655Z,13.18
2023-03-24T10:18:18.059Z,13.16
2023-03-24T10:20:53.769Z,13.24
2023-03-24T10:23:30.953Z,13.41
2023-03-24T10:26:11.025Z,13.52
2023-03-24T10:28:45.803Z,13.36
2023-03-24T10:31:20.858Z,13.66
2023-03-24T10:33:53.967Z,13.36
2023-03-24T10:36:27.919Z,13.48
2023-03-24T10:39:09.530Z,13.64
2023-03-24T10:41:54.614Z,13.59
2023-03-24T10:44:28.270Z,13.44
2023-03-24T10:47:04.471Z,13.55
2023-03-24T10:49:38.096Z,13.73
2023-03-24T10:52:11.305Z,13.63
2023-03-24T10:54:54.326Z,13.91
2023-03-24T10:57:31.885Z,13.91
2023-03-24T11:00:14.872Z,14.02
2023-03-24T11:02:55.517Z,13.61
2023-03-24T11:05:30.670Z,14.13
2023-03-24T11:08:15.872Z,14.08
2023-03-24T11:10:49.498Z,13.92
2023-03-24T11:13:30.082Z,14.01
2023-03-24T11:16:10.245Z,13.97
2023-03-24T11:18:56.175Z,13.97
2023-03-24T11:21:29.585Z,13.97
2023-03-24T11:24:04.170Z,14.26
2023-03-24T11:26:39.220Z,14.30
2023-03-24T11:29:16.852Z,14.27
2023-03-24T11:31:52.727Z,14.38
2023-03-24T11:34:30.265Z,14.36
2023-03-24T11:37:04.660Z,14.47
2023-03-24T11:39:38.975Z,14.53
2023-03-24T11:42:16.777Z,14.40
2023-03-24T11:44:52.583Z,14.67
2023-03-24T11:47:29.256Z,14.63
2023-03-24T11:50:15.768Z,14.47
2023-03-24T11:52:52.546Z,14.60
2023-03-24T11:55:29.558Z,14.63
2023-03-24T11:58:04.175Z,14.88
2023-03-24T12:00:43.071Z,14.69
2023-03-24T12:03:34.132Z,14.71
2023-03-24T12:06:15.820Z,14.91
2023-03-24T12:08:53.701Z,14.62
2023-03-24T12:11:34.540Z,14.60
2023-03-24T12:14:10.430Z,14.67
2023-03-24T12:16:51.916Z,14.92
2023-03-24T12:19:33.518Z,15.12
2023-03-24T12:22:11.862Z,14.95
2023-03-24T12:25:08.145Z,15.17
2023-03-24T12:27:47.519Z,14.96
2023-03-24T12:30:26.561Z,14.84
2023-03-24T12:33:14.604Z,15.08
2023-03-24T12:35:51.991Z,14.96
2023-03-24T12:38:37.017Z,14.72
2023-03-24T12:41:25.203Z,14.95
2023-03-24T12:44:08.838Z,14.94
2023-03-24T12:46:49.864Z,14.47
2023-03-24T12:49:32.281Z,15.24
2023-03-24T12:52:22.134Z,15.27
2023-03-24T12:55:04.259Z,15.18
2023-03-24T12:57:40.785Z,15.28
2023-03-24T13:00:17.505Z,15.06
2023-03-24T13:02:53.428Z,15.23
2023-03-24T13:05:31.803Z,15.26
2023-03-24T13:08:08.277Z,15.28
2023-03-24T13:10:42.151Z,15.23
2023-03-24T13:13:19.353Z,15.32
2023-03-24T13:15:57.222Z,15.47
2023-03-24T13:18:32.502Z,15.23
2023-03-24T13:21:08.984Z,15.27
2023-03-24T13:23:44.930Z,15.10
2023-03-24T13:26:28.993Z,15.52
2023-03-24T13:29:21.952Z,15.46
2023-03-24T13:31:57.565Z,15.22
2023-03-24T13:34:32.694Z,15.34
2023-03-24T13:37:08.245Z,15.43
2023-03-24T13:39:43.844Z,15.37
2023-03-24T13:42:29.468Z,15.18
2023-03-24T13:45:03.976Z,15.14
2023-03-24T13:47:50.884Z,15.13
2023-03-24T13:50:25.712Z,15.19
2023-03-24T13:53:05.948Z,15.17
2023-03-24T13:55:40.863Z,15.38
2023-03-24T13:58:18.949Z,15.17
2023-03-24T14:01:17.062Z,15.17
2023-03-24T14:04:11.832Z,15.31
2023-03-24T14:06:46.562Z,15.37
2023-03-24T14:09:22.719Z,15.31
2023-03-24T14:12:22.296Z,15.42
2023-03-24T14:15:17.788Z,15.46
2023-03-24T14:17:54.931Z,15.44
2023-03-24T14:20:30.438Z,15.35
2023-03-24T14:23:04.515Z,15.47
2023-03-24T14:25:39.189Z,15.41
2023-03-24T14:28:19.661Z,15.40
2023-03-24T14:31:02.269Z,15.41
2023-03-24T14:33:35.975Z,15.35
2023-03-24T14:36:12.282Z,15.44
2023-03-24T14:38:46.040Z,15.29
2023-03-24T14:41:28.544Z,15.40
2023-03-24T14:44:02.098Z,15.31
2023-03-24T14:46:38.457Z,15.29
2023-03-24T14:49:16.712Z,15.30
2023-03-24T14:51:54.034Z,15.26
2023-03-24T14:54:31.069Z,15.34
2023-03-24T14:57:06.682Z,15.37
2023-03-24T14:59:43.131Z,15.25
2023-03-24T15:02:26.407Z,15.28
2023-03-24T15:05:18.864Z,15.22
2023-03-24T15:08:04.471Z,15.15
2023-03-24T15:10:39.637Z,15.25
2023-03-24T15:13:34.646Z,15.21
2023-03-24T15:16:19.122Z,15.25
2023-03-24T15:19:01.371Z,15.25
2023-03-24T15:21:36.973Z,15.26
2023-03-24T15:24:26.755Z,15.13
2023-03-24T15:27:18.351Z,15.13
2023-03-24T15:29:55.214Z,15.13
2023-03-24T15:32:32.416Z,15.21
2023-03-24T15:35:07.148Z,15.24
2023-03-24T15:37:43.047Z,15.19
2023-03-24T15:40:36.172Z,15.13
2023-03-24T15:43:19.180Z,15.11
2023-03-24T15:46:04.796Z,15.13
2023-03-24T15:48:47.887Z,15.03
2023-03-24T15:51:21.142Z,15.01
2023-03-24T15:53:59.102Z,14.93
2023-03-24T15:56:34.407Z,14.94
2023-03-24T15:59:15.593Z,14.83
2023-03-24T16:01:50.456Z,14.75
2023-03-24T16:04:24.874Z,14.74
2023-03-24T16:06:58.832Z,14.79
2023-03-24T16:09:38.083Z,14.74
2023-03-24T16:12:14.355Z,14.54
2023-03-24T16:14:48.203Z,14.41
2023-03-24T16:17:21.704Z,14.55
2023-03-24T16:19:56.035Z,14.51
2023-03-24T16:22:29.203Z,14.41
2023-03-24T16:25:02.406Z,14.39
2023-03-24T16:27:35.530Z,14.25
2023-03-24T16:30:18.730Z,14.14
2023-03-24T16:32:51.779Z,13.98
2023-03-24T16:35:27.051Z,13.91
2023-03-24T16:38:00.330Z,13.84
2023-03-24T16:40:36.845Z,13.79
2023-03-24T16:43:09.724Z,13.68
2023-03-24T16:45:43.330Z,13.65
2023-03-24T16:48:17.010Z,13.68
2023-03-24T16:50:53.530Z,13.73
2023-03-24T16:53:26.527Z,13.75
2023-03-24T16:55:59.402Z,13.71
2023-03-24T16:58:32.256Z,13.70
2023-03-24T17:01:24.052Z,13.52
2023-03-24T17:03:58.117Z,13.39
2023-03-24T17:06:33.555Z,13.37
2023-03-24T17:09:08.252Z,13.29
2023-03-24T17:11:42.898Z,13.19
2023-03-24T17:14:16.672Z,13.12
2023-03-24T17:16:53.101Z,13.11
2023-03-24T17:19:27.144Z,13.14
2023-03-24T17:22:02.588Z,13.09
2023-03-24T17:24:38.090Z,13.10
2023-03-24T17:27:12.006Z,13.05
2023-03-24T17:29:45.088Z,13.04
2023-03-24T17:32:19.372Z,13.02
2023-03-24T17:34:54.120Z,12.92
2023-03-24T17:37:29.793Z,12.81
2023-03-24T17:40:07.953Z,12.80
2023-03-24T17:42:42.894Z,12.74
2023-03-24T17:45:18.220Z,12.70
2023-03-24T17:47:51.430Z,12.63
2023-03-24T17:50:25.582Z,12.63
2023-03-24T17:53:01.397Z,12.58
2023-03-24T17:55:34.267Z,12.52
2023-03-24T17:58:08.507Z,12.46
2023-03-24T18:00:41.742Z,12.45
2023-03-24T18:03:17.515Z,12.45
2023-03-24T18:05:51.233Z,12.36
2023-03-24T18:08:26.518Z,12.33
2023-03-24T18:11:03.801Z,12.27
2023-03-24T18:13:37.321Z,12.12
2023-03-24T18:16:20.615Z,12.09
2023-03-24T18:18:55.049Z,12.02
2023-03-24T18:21:28.398Z,12.08
2023-03-24T18:24:03.181Z,12.07
2023-03-24T18:26:36.295Z,11.98
2023-03-24T18:29:10.059Z,11.90
2023-03-24T18:31:43.137Z,11.87
2023-03-24T18:34:16.807Z,11.75
2023-03-24T18:36:50.105Z,11.65
2023-03-24T18:39:24.923Z,11.68
2023-03-24T18:41:57.844Z,11.77
2023-03-24T18:44:34.593Z,11.67
2023-03-24T18:47:07.721Z,11.62
2023-03-24T18:49:41.213Z,11.63
2023-03-24T18:52:19.176Z,11.57
2023-03-24T18:54:54.288Z,11.55
2023-03-24T18:57:27.578Z,11.55
2023-03-24T19:00:01.298Z,11.44
2023-03-24T19:02:34.465Z,11.45
2023-03-24T19:05:10.080Z,11.42
2023-03-24T19:07:45.899Z,11.40
2023-03-24T19:10:20.693Z,11.40
2023-03-24T19:12:55.742Z,11.29
2023-03-24T19:15:30.114Z,11.32
2023-03-24T19:18:03.820Z,11.32
2023-03-24T19:20:37.952Z,11.29
2023-03-24T19:23:11.424Z,11.27
2023-03-24T19:25:46.480Z,11.27
2023-03-24T19:28:19.771Z,11.14
2023-03-24T19:30:56.858Z,11.22
2023-03-24T19:33:30.219Z,11.18
2023-03-24T19:36:03.916Z,11.12
2023-03-24T19:38:38.074Z,11.05
2023-03-24T19:41:14.563Z,11.04
2023-03-24T19:43:49.094Z,11.10
2023-03-24T19:46:22.112Z,11.07
2023-03-24T19:48:57.083Z,11.05
2023-03-24T19:51:36.920Z,11.01
2023-03-24T19:54:15.569Z,10.87
2023-03-24T19:56:56.268Z,10.84
2023-03-24T19:59:29.572Z,10.86
2023-03-24T20:02:04.597Z,10.86
2023-03-24T20:04:37.925Z,10.81
2023-03-24T20:07:11.575Z,10.84
2023-03-24T20:09:44.652Z,10.77
2023-03-24T20:12:19.824Z,10.73
2023-03-24T20:14:53.325Z,10.73
2023-03-24T20:17:28.539Z,10.64
2023-03-24T20:20:01.476Z,10.64
2023-03-24T20:22:34.684Z,10.66
2023-03-24T20:25:08.132Z,10.71
2023-03-24T20:27:45.245Z,10.61
2023-03-24T20:30:20.218Z,10.63
2023-03-24T20:32:56.370Z,10.69
2023-03-24T20:35:29.473Z,10.73
2023-03-24T20:38:02.406Z,10.75
2023-03-24T20:40:35.570Z,10.71
2023-03-24T20:43:10.789Z,10.72
2023-03-24T20:45:43.704Z,10.60
2023-03-24T20:48:16.788Z,10.45
2023-03-24T20:50:49.827Z,10.32
2023-03-24T20:53:22.917Z,10.32
2023-03-24T20:55:59.689Z,10.31
2023-03-24T20:58:34.776Z,10.36
2023-03-24T21:01:08.801Z,10.38
2023-03-24T21:03:41.790Z,10.24
2023-03-24T21:06:15.304Z,10.27
2023-03-24T21:08:49.277Z,10.25
2023-03-24T21:11:22.430Z,10.31
2023-03-24T21:13:57.168Z,10.32
2023-03-24T21:16:33.692Z,10.32
2023-03-24T21:19:07.337Z,10.24
2023-03-24T21:21:42.853Z,10.13
2023-03-24T21:24:16.198Z,10.05
2023-03-24T21:26:50.884Z,10.04
2023-03-24T21:29:26.718Z,9.98
2023-03-24T21:31:59.649Z,9.96
2023-03-24T21:34:32.983Z,9.96
2023-03-24T21:37:06.251Z,10.00
2023-03-24T21:39:39.375Z,10.04
2023-03-24T21:42:15.412Z,10.11
2023-03-24T21:44:50.698Z,10.10
2023-03-24T21:47:25.374Z,10.08
2023-03-24T21:49:59.141Z,10.04
2023-03-24T21:52:36.423Z,10.02
2023-03-24T21:55:10.479Z,9.99
2023-03-24T21:57:43.818Z,9.96
2023-03-24T22:00:19.591Z,9.89
2023-03-24T22:02:53.586Z,9.73
2023-03-24T22:05:27.870Z,9.74
2023-03-24T22:08:02.588Z,9.76
2023-03-24T22:10:36.333Z,9.79
2023-03-24T22:13:10.924Z,9.75
2023-03-24T22:15:46.000Z,9.75
2023-03-24T22:18:19.128Z,9.76
2023-03-24T22:20:55.900Z,9.63
2023-03-24T22:23:32.813Z,9.66
2023-03-24T22:26:07.229Z,9.68
2023-03-24T22:28:40.839Z,9.69
2023-03-24T22:31:16.253Z,9.67
2023-03-24T22:33:49.770Z,9.56
2023-03-24T22:36:22.791Z,9.34
2023-03-24T22:38:56.228Z,9.22
2023-03-24T22:41:29.448Z,9.20
2023-03-24T22:44:02.828Z,9.12
2023-03-24T22:46:37.655Z,9.05
2023-03-24T22:49:10.673Z,9.16
2023-03-24T22:51:43.487Z,9.19
2023-03-24T22:54:16.394Z,9.20
2023-03-24T22:56:49.426Z,9.29
2023-03-24T22:59:24.157Z,9.23
2023-03-24T23:02:08.686Z,8.96
2023-03-24T23:04:44.974Z,8.92
2023-03-24T23:07:18.590Z,9.02
2023-03-24T23:09:53.378Z,9.23
2023-03-24T23:12:27.650Z,8.78
2023-03-24T23:15:01.468Z,8.85
2023-03-24T23:17:36.192Z,8.55
2023-03-24T23:20:10.666Z,8.97
2023-03-24T23:22:44.084Z,8.85
2023-03-24T23:25:19.156Z,8.85
2023-03-24T23:27:52.433Z,8.81
2023-03-24T23:30:26.581Z,8.81
2023-03-24T23:33:04.207Z,8.62
2023-03-24T23:35:38.506Z,8.67
2023-03-24T23:38:11.566Z,8.51
2023-03-24T23:40:44.641Z,8.51
2023-03-24T23:43:17.531Z,8.41
2023-03-24T23:45:50.736Z,8.43
2023-03-24T23:48:26.106Z,8.43
2023-03-24T23:51:00.194Z,8.43
2023-03-24T23:53:33.090Z,8.35
2023-03-24T23:56:07.841Z,8.27
2023-03-24T23:58:41.547Z,8.46
